Time;durP1;ratioP1;P1;durP2;ratioP2;P2;SDS_P1;SDS_P2;PMS_P1;PMS_P2;Temp;Humidity;BMP_temperature;BMP_pressure;BME280_temperature;BME280_humidity;BME280_pressure;Samples;Min_cycle;Max_cycle;Signal;HPM_P1;HPM_P2
2021/05/21 00:05:50;;;;;;;5.70;3.00;;;8.70;99.90;;;;;;21095614;28;20024;-80
2021/05/21 00:15:51;;;;;;;5.47;2.80;;;8.50;99.90;;;;;;21099882;28;20124;-78
2021/05/21 00:25:52;;;;;;;2.87;2.13;;;8.20;99.90;;;;;;21097362;28;20036;-80
2021/05/21 00:35:53;;;;;;;4.23;2.47;;;8.10;99.90;;;;;;21097096;28;20036;-83
2021/05/21 00:45:54;;;;;;;4.33;2.60;;;8.30;99.90;;;;;;21097106;28;20035;-83
2021/05/21 00:56:00;;;;;;;6.53;3.27;;;8.10;99.90;;;;;;21094277;28;20032;-82
2021/05/21 01:06:00;;;;;;;5.05;2.92;;;8.30;99.90;;;;;;21095898;28;20059;-81
2021/05/21 01:16:02;;;;;;;3.77;2.13;;;8.30;99.90;;;;;;21093812;28;20028;-82
2021/05/21 01:26:03;;;;;;;5.57;2.70;;;8.40;99.90;;;;;;21098786;28;20049;-81
2021/05/21 01:36:04;;;;;;;3.57;2.00;;;8.50;99.90;;;;;;21104846;28;20286;-81
2021/05/21 01:46:05;;;;;;;5.93;2.33;;;8.60;99.90;;;;;;21113528;28;20035;-83
2021/05/21 01:56:07;;;;;;;8.50;3.07;;;8.40;99.90;;;;;;21114273;28;20127;-82
2021/05/21 02:06:08;;;;;;;5.00;2.28;;;8.30;99.90;;;;;;21110628;28;20032;-82
2021/05/21 02:16:09;;;;;;;4.67;2.63;;;8.40;99.90;;;;;;21111683;28;20034;-79
2021/05/21 02:26:10;;;;;;;4.87;2.73;;;8.40;99.90;;;;;;21106724;28;20505;-81
2021/05/21 02:36:11;;;;;;;3.30;2.20;;;8.20;99.90;;;;;;21108253;28;20035;-83
2021/05/21 02:46:12;;;;;;;4.13;2.27;;;8.30;99.90;;;;;;21105654;28;20028;-82
2021/05/21 02:56:13;;;;;;;5.50;2.97;;;8.30;99.90;;;;;;21108787;28;20028;-82
2021/05/21 03:06:14;;;;;;;3.90;2.20;;;8.40;99.90;;;;;;21107257;28;20396;-79
2021/05/21 03:16:15;;;;;;;7.47;2.10;;;8.30;99.90;;;;;;21097118;28;20032;-80
2021/05/21 03:26:16;;;;;;;4.77;2.40;;;8.30;99.90;;;;;;21092958;28;20028;-81
2021/05/21 03:36:16;;;;;;;4.13;2.70;;;8.40;99.90;;;;;;21097105;28;20036;-83
2021/05/21 03:46:17;;;;;;;7.33;2.20;;;8.30;99.90;;;;;;21091263;28;20097;-80
2021/05/21 03:56:18;;;;;;;4.57;2.03;;;8.20;99.90;;;;;;21090881;28;20038;-80
2021/05/21 04:06:19;;;;;;;3.33;2.03;;;8.30;99.90;;;;;;21092576;28;20043;-79
2021/05/21 04:16:20;;;;;;;5.70;2.07;;;8.50;99.90;;;;;;21088916;28;20088;-82
2021/05/21 04:26:21;;;;;;;4.43;1.70;;;8.60;99.90;;;;;;21088692;28;20370;-78
2021/05/21 04:36:22;;;;;;;5.00;2.10;;;8.80;99.90;;;;;;21088313;28;20438;-79
2021/05/21 04:46:23;;;;;;;2.80;1.63;;;8.90;99.90;;;;;;21087440;28;20106;-78
2021/05/21 04:56:24;;;;;;;3.33;1.93;;;8.80;99.90;;;;;;21086375;28;20043;-82
2021/05/21 05:06:25;;;;;;;5.30;3.43;;;8.90;99.90;;;;;;21089367;28;20028;-80
2021/05/21 05:16:26;;;;;;;3.87;1.43;;;9.10;99.90;;;;;;21088957;28;20062;-81
2021/05/21 05:26:27;;;;;;;6.67;2.30;;;9.20;99.90;;;;;;21089341;28;20028;-83
2021/05/21 05:36:28;;;;;;;3.88;1.90;;;9.30;99.90;;;;;;21083188;28;20039;-84
2021/05/21 05:46:29;;;;;;;6.47;3.47;;;9.80;99.90;;;;;;21082736;28;20064;-81
2021/05/21 05:56:30;;;;;;;6.17;2.57;;;10.00;99.90;;;;;;21083307;28;20032;-81
2021/05/21 06:06:31;;;;;;;5.67;2.57;;;10.50;99.90;;;;;;21082079;28;20111;-80
2021/05/21 06:16:32;;;;;;;5.23;2.30;;;10.70;99.90;;;;;;21072582;28;20068;-78
2021/05/21 06:26:42;;;;;;;4.23;2.20;;;10.40;99.90;;;;;;21070816;28;20119;-83
2021/05/21 06:36:43;;;;;;;7.25;2.50;;;10.60;99.90;;;;;;21085382;28;20044;-83
2021/05/21 06:46:44;;;;;;;8.57;2.30;;;10.40;99.90;;;;;;21079298;28;20047;-76
2021/05/21 06:56:45;;;;;;;3.30;2.20;;;10.30;99.90;;;;;;21093553;28;20053;-79
2021/05/21 07:06:46;;;;;;;4.73;2.67;;;10.40;99.90;;;;;;21095980;28;20141;-80
2021/05/21 07:16:47;;;;;;;4.17;2.80;;;10.70;99.90;;;;;;21093700;28;20466;-78
2021/05/21 07:26:48;;;;;;;5.50;3.07;;;11.00;99.90;;;;;;21089721;28;20072;-79
2021/05/21 07:36:49;;;;;;;4.40;3.40;;;11.20;99.90;;;;;;21072246;28;20036;-83
2021/05/21 07:46:51;;;;;;;8.07;3.63;;;11.00;99.90;;;;;;21094778;28;20035;-81
2021/05/21 07:56:51;;;;;;;5.05;3.03;;;11.00;99.90;;;;;;21089474;28;20087;-79
2021/05/21 08:06:52;;;;;;;4.40;3.57;;;11.00;99.90;;;;;;21084311;28;20047;-83
2021/05/21 08:16:53;;;;;;;9.27;3.20;;;10.90;99.90;;;;;;21091169;28;20028;-81
2021/05/21 08:26:54;;;;;;;6.97;3.00;;;10.90;99.90;;;;;;21087597;28;20392;-81
2021/05/21 08:36:55;;;;;;;10.47;4.90;;;11.20;99.90;;;;;;21083384;28;20104;-83
2021/05/21 08:46:59;;;;;;;2.60;1.33;;;11.00;99.90;;;;;;21081582;28;20094;-82
2021/05/21 08:57:04;;;;;;;2.78;1.00;;;11.00;99.90;;;;;;21082475;28;20094;-83
2021/05/21 09:07:16;;;;;;;1.13;0.93;;;11.20;99.90;;;;;;21062976;28;20063;-82
2021/05/21 09:17:23;;;;;;;14.32;1.30;;;11.10;99.90;;;;;;21085907;28;20032;-82
2021/05/21 09:27:25;;;;;;;2.15;0.75;;;11.10;99.90;;;;;;21087907;28;20059;-78
2021/05/21 09:37:27;;;;;;;2.10;1.10;;;11.10;99.90;;;;;;21087269;28;20054;-83
2021/05/21 09:47:57;;;;;;;0.90;0.80;;;11.20;99.90;;;;;;21087138;28;20032;-82
2021/05/21 09:57:58;;;;;;;1.73;1.10;;;11.40;99.90;;;;;;21093165;28;20038;-81
2021/05/21 10:07:59;;;;;;;5.90;1.13;;;11.50;99.90;;;;;;21085844;28;20028;-81
2021/05/21 10:18:00;;;;;;;2.73;1.23;;;11.70;99.90;;;;;;21104418;28;20507;-80
2021/05/21 10:28:06;;;;;;;4.13;1.30;;;11.90;99.90;;;;;;21101244;28;20024;-83
2021/05/21 10:38:18;;;;;;;1.63;1.05;;;12.20;99.90;;;;;;21102574;28;20281;-81
2021/05/21 10:48:50;;;;;;;1.48;0.90;;;12.90;99.90;;;;;;21094817;28;20032;-80
2021/05/21 10:58:55;;;;;;;5.00;1.10;;;13.50;99.90;;;;;;21098151;28;20027;-80
2021/05/21 11:09:11;;;;;;;1.67;0.70;;;14.00;99.90;;;;;;21076213;28;20032;-80
2021/05/21 11:19:24;;;;;;;0.73;0.70;;;14.00;99.90;;;;;;21092574;28;20028;-81
2021/05/21 11:29:26;;;;;;;1.13;0.70;;;13.70;99.90;;;;;;21094342;28;20085;-82
2021/05/21 11:39:27;;;;;;;2.67;1.40;;;13.70;99.90;;;;;;21090395;28;20032;-82
2021/05/21 11:49:28;;;;;;;1.57;1.13;;;13.80;99.90;;;;;;21067046;28;20043;-82
2021/05/21 11:59:29;;;;;;;;;;;13.60;99.90;;;;;;21077220;28;20032;-79
2021/05/21 12:09:32;;;;;;;1.70;0.77;;;12.90;99.90;;;;;;21078222;28;19922;-85
2021/05/21 12:19:33;;;;;;;3.25;1.35;;;12.80;99.90;;;;;;21074594;28;20515;-85
2021/05/21 12:29:34;;;;;;;1.13;0.80;;;12.50;99.90;;;;;;21075562;28;20439;-81
2021/05/21 12:39:40;;;;;;;4.17;1.13;;;12.10;99.90;;;;;;21076494;28;20609;-80
2021/05/21 12:49:46;;;;;;;4.90;2.50;;;12.40;99.90;;;;;;21072026;28;20494;-80
2021/05/21 12:59:53;;;;;;;4.85;2.00;;;12.40;99.90;;;;;;21070512;28;20039;-80
2021/05/21 13:10:00;;;;;;;1.20;0.88;;;12.30;99.90;;;;;;21068192;28;20052;-80
2021/05/21 13:20:01;;;;;;;3.92;1.80;;;12.30;99.90;;;;;;21063576;28;20032;-80
2021/05/21 13:30:11;;;;;;;3.20;0.80;;;12.30;99.90;;;;;;21058094;28;20040;-81
2021/05/21 13:40:12;;;;;;;2.20;0.70;;;12.50;99.90;;;;;;21101256;28;20274;-81
2021/05/21 13:50:13;;;;;;;5.87;2.30;;;12.80;99.90;;;;;;21096315;28;20039;-81
2021/05/21 14:00:14;;;;;;;2.27;1.33;;;12.90;99.90;;;;;;20990117;22;20068;-77
2021/05/21 14:10:15;;;;;;;5.33;1.73;;;12.70;99.90;;;;;;20922208;28;20033;-77
2021/05/21 14:20:17;;;;;;;2.90;1.13;;;12.50;99.90;;;;;;20955553;28;20032;-76
2021/05/21 14:30:19;;;;;;;3.28;1.00;;;12.70;99.90;;;;;;20982278;28;20495;-76
2021/05/21 14:40:20;;;;;;;2.22;1.15;;;12.50;99.90;;;;;;20981791;28;20037;-76
2021/05/21 14:50:22;;;;;;;3.27;1.43;;;12.30;99.90;;;;;;20979775;28;20448;-76
2021/05/21 15:00:23;;;;;;;2.17;1.30;;;12.20;99.90;;;;;;20943642;28;20128;-76
2021/05/21 15:10:25;;;;;;;2.57;1.40;;;11.90;99.90;;;;;;20957198;28;20370;-76
2021/05/21 15:30:51;;;;;;;2.67;1.63;;;11.70;99.90;;;;;;20958555;28;20083;-76
2021/05/21 15:40:54;;;;;;;4.25;1.17;;;11.80;99.90;;;;;;20959285;28;20028;-76
2021/05/21 15:51:07;;;;;;;2.00;1.33;;;11.60;99.90;;;;;;20976323;28;20029;-76
2021/05/21 16:01:08;;;;;;;9.27;3.78;;;11.40;99.90;;;;;;20999872;28;20081;-76
2021/05/21 16:11:11;;;;;;;22.20;8.93;;;11.30;99.90;;;;;;21040434;28;20036;-76
2021/05/21 16:21:12;;;;;;;1.80;1.10;;;11.00;99.90;;;;;;21056751;28;20036;-77
2021/05/21 16:31:13;;;;;;;2.50;1.50;;;10.90;99.90;;;;;;20950628;28;20044;-76
2021/05/21 16:41:16;;;;;;;9.87;3.87;;;10.90;99.90;;;;;;20918460;28;20411;-76
2021/05/21 16:51:17;;;;;;;6.22;3.42;;;10.80;99.90;;;;;;20888759;28;20044;-77
2021/05/21 17:01:18;;;;;;;2.13;1.50;;;10.70;99.90;;;;;;20926563;28;20047;-77
2021/05/21 17:11:24;;;;;;;7.80;1.77;;;10.70;99.90;;;;;;21055639;28;20024;-77
2021/05/21 18:12:38;;;;;;;8.43;5.55;;;10.20;99.90;;;;;;20989045;28;20033;-76
2021/05/21 18:23:38;;;;;;;9.80;3.10;;;10.10;99.90;;;;;;20931076;28;20035;-77
2021/05/21 18:54:10;;;;;;;3.72;1.45;;;9.70;99.90;;;;;;20978540;28;20043;-76
2021/05/21 19:04:03;;;;;;;4.28;2.50;;;9.50;99.90;;;;;;21027840;28;20689;-76
2021/05/21 19:24:06;;;;;;;4.53;1.90;;;9.30;99.90;;;;;;21055286;28;20274;-76
2021/05/21 20:14:49;;;;;;;16.77;4.25;;;9.00;99.90;;;;;;20971149;28;20119;-76
2021/05/21 20:24:50;;;;;;;5.17;2.83;;;8.80;99.90;;;;;;20962630;28;20498;-75
2021/05/21 22:07:27;;;;;;;0.93;0.80;;;8.70;99.90;;;;;;21004180;28;20437;-76
2021/05/21 22:17:56;;;;;;;4.35;1.80;;;8.60;99.90;;;;;;21003411;28;20226;-77
2021/05/21 22:27:52;;;;;;;1.52;0.73;;;8.50;99.90;;;;;;21001616;28;20430;-77
2021/05/21 22:37:54;;;;;;;1.63;1.10;;;8.50;99.90;;;;;;21001752;28;20024;-76
2021/05/21 22:47:56;;;;;;;1.70;0.80;;;8.40;99.90;;;;;;21000852;28;20090;-76
2021/05/21 22:57:57;;;;;;;3.78;1.10;;;8.30;99.90;;;;;;20982188;28;20411;-76
2021/05/21 23:07:58;;;;;;;5.03;1.10;;;8.40;99.90;;;;;;20980391;28;20041;-76
2021/05/21 23:17:59;;;;;;;2.87;0.73;;;8.40;99.90;;;;;;20998583;28;20501;-76
2021/05/21 23:28:00;;;;;;;4.10;0.67;;;8.30;99.90;;;;;;20998759;28;20457;-75
2021/05/21 23:38:01;;;;;;;1.17;0.60;;;8.10;99.90;;;;;;20998485;28;20029;-75
2021/05/21 23:48:02;;;;;;;0.53;0.40;;;8.20;99.90;;;;;;21001259;28;20043;-75
2021/05/21 23:58:03;;;;;;;0.70;0.50;;;8.30;99.90;;;;;;20994999;28;20037;-75
